sensor_id;sensor_type;location;lat;lon;timestamp;P1;durP1;ratioP1;P2;durP2;ratioP2
33730;SDS011;22931;48.636;9.000;2022-08-05T18:13:55;3.05;;;2.15;;
33730;SDS011;22931;48.636;9.000;2022-08-05T18:19:03;2.10;;;1.90;;
33730;SDS011;22931;48.636;9.000;2022-08-05T18:24:11;2.53;;;2.25;;
33730;SDS011;22931;48.636;9.000;2022-08-05T18:29:21;2.75;;;2.55;;
33730;SDS011;22931;48.636;9.000;2022-08-05T18:34:44;3.53;;;3.00;;
33730;SDS011;22931;48.636;9.000;2022-08-05T18:39:52;4.15;;;3.17;;
33730;SDS011;22931;48.636;9.000;2022-08-05T18:45:23;6.10;;;3.40;;
33730;SDS011;22931;48.636;9.000;2022-08-05T18:50:45;3.58;;;3.28;;
33730;SDS011;22931;48.636;9.000;2022-08-05T18:56:26;3.72;;;3.42;;
33730;SDS011;22931;48.636;9.000;2022-08-05T19:01:38;4.97;;;3.90;;
33730;SDS011;22931;48.636;9.000;2022-08-05T19:07:00;4.18;;;3.78;;
33730;SDS011;22931;48.636;9.000;2022-08-05T19:12:11;5.47;;;4.43;;
33730;SDS011;22931;48.636;9.000;2022-08-05T19:17:24;7.57;;;4.23;;
33730;SDS011;22931;48.636;9.000;2022-08-05T19:22:52;5.00;;;4.50;;
33730;SDS011;22931;48.636;9.000;2022-08-05T19:27:59;5.85;;;4.65;;
33730;SDS011;22931;48.636;9.000;2022-08-05T19:33:10;5.63;;;5.00;;
33730;SDS011;22931;48.636;9.000;2022-08-05T19:38:37;5.38;;;4.85;;
33730;SDS011;22931;48.636;9.000;2022-08-05T19:43:45;6.97;;;5.20;;
33730;SDS011;22931;48.636;9.000;2022-08-05T19:49:15;5.93;;;4.70;;
33730;SDS011;22931;48.636;9.000;2022-08-05T19:54:23;4.97;;;4.47;;
33730;SDS011;22931;48.636;9.000;2022-08-05T19:59:35;8.25;;;3.63;;
33730;SDS011;22931;48.636;9.000;2022-08-05T20:05:08;4.93;;;3.10;;
33730;SDS011;22931;48.636;9.000;2022-08-05T20:10:27;3.42;;;3.00;;
33730;SDS011;22931;48.636;9.000;2022-08-05T20:15:36;3.40;;;2.67;;
33730;SDS011;22931;48.636;9.000;2022-08-05T20:20:58;3.05;;;2.58;;
33730;SDS011;22931;48.636;9.000;2022-08-05T20:26:08;3.05;;;2.33;;
33730;SDS011;22931;48.636;9.000;2022-08-05T20:31:20;3.38;;;2.50;;
33730;SDS011;22931;48.636;9.000;2022-08-05T20:36:49;4.20;;;2.95;;
33730;SDS011;22931;48.636;9.000;2022-08-05T20:41:58;4.53;;;2.92;;
33730;SDS011;22931;48.636;9.000;2022-08-05T20:47:06;3.83;;;2.78;;
33730;SDS011;22931;48.636;9.000;2022-08-05T20:52:16;3.50;;;3.15;;
33730;SDS011;22931;48.636;9.000;2022-08-05T20:57:24;4.13;;;2.80;;
33730;SDS011;22931;48.636;9.000;2022-08-05T21:02:47;2.78;;;2.58;;
33730;SDS011;22931;48.636;9.000;2022-08-05T21:08:03;3.30;;;2.38;;
33730;SDS011;22931;48.636;9.000;2022-08-05T21:13:11;3.40;;;2.58;;
33730;SDS011;22931;48.636;9.000;2022-08-05T21:18:30;3.03;;;2.45;;
33730;SDS011;22931;48.636;9.000;2022-08-05T21:23:41;3.88;;;2.40;;
33730;SDS011;22931;48.636;9.000;2022-08-05T21:28:50;2.25;;;1.92;;
33730;SDS011;22931;48.636;9.000;2022-08-05T21:34:06;3.88;;;2.40;;
33730;SDS011;22931;48.636;9.000;2022-08-05T21:39:17;2.17;;;1.98;;
33730;SDS011;22931;48.636;9.000;2022-08-05T21:44:31;3.10;;;1.88;;
33730;SDS011;22931;48.636;9.000;2022-08-05T21:49:40;2.10;;;1.85;;
33730;SDS011;22931;48.636;9.000;2022-08-05T21:55:07;1.67;;;1.58;;
33730;SDS011;22931;48.636;9.000;2022-08-05T22:00:17;2.45;;;2.05;;
33730;SDS011;22931;48.636;9.000;2022-08-05T22:05:25;2.08;;;1.65;;
33730;SDS011;22931;48.636;9.000;2022-08-05T22:10:54;2.30;;;1.58;;
33730;SDS011;22931;48.636;9.000;2022-08-05T22:16:02;2.03;;;1.60;;
33730;SDS011;22931;48.636;9.000;2022-08-05T22:21:30;1.67;;;1.50;;
33730;SDS011;22931;48.636;9.000;2022-08-05T22:26:41;1.67;;;1.50;;
33730;SDS011;22931;48.636;9.000;2022-08-05T22:32:01;3.45;;;1.42;;
33730;SDS011;22931;48.636;9.000;2022-08-05T22:37:13;2.20;;;1.30;;
33730;SDS011;22931;48.636;9.000;2022-08-05T22:42:24;1.63;;;1.10;;
33730;SDS011;22931;48.636;9.000;2022-08-05T22:47:34;2.20;;;1.00;;
33730;SDS011;22931;48.636;9.000;2022-08-05T22:52:53;0.80;;;0.68;;
33730;SDS011;22931;48.636;9.000;2022-08-05T22:58:04;1.00;;;0.98;;
33730;SDS011;22931;48.636;9.000;2022-08-05T23:03:17;1.13;;;1.02;;
33730;SDS011;22931;48.636;9.000;2022-08-05T23:08:45;1.30;;;1.20;;
33730;SDS011;22931;48.636;9.000;2022-08-05T23:13:58;1.02;;;0.93;;
33730;SDS011;22931;48.636;9.000;2022-08-05T23:19:06;1.02;;;0.93;;
33730;SDS011;22931;48.636;9.000;2022-08-05T23:24:29;0.60;;;0.60;;
33730;SDS011;22931;48.636;9.000;2022-08-05T23:29:40;1.55;;;0.98;;
33730;SDS011;22931;48.636;9.000;2022-08-05T23:34:49;0.63;;;0.63;;
33730;SDS011;22931;48.636;9.000;2022-08-05T23:39:57;2.03;;;0.60;;
33730;SDS011;22931;48.636;9.000;2022-08-05T23:45:15;2.80;;;0.70;;
33730;SDS011;22931;48.636;9.000;2022-08-05T23:50:23;1.75;;;0.63;;
